Time;durP1;ratioP1;P1;durP2;ratioP2;P2;SDS_P1;SDS_P2;PMS_P1;PMS_P2;Temp;Humidity;BMP_temperature;BMP_pressure;BME280_temperature;BME280_humidity;BME280_pressure;Samples;Min_cycle;Max_cycle;Signal;HPM_P1;HPM_P2
2020/12/12 00:02:20;;;;;;;18.42;10.73;;;4.50;99.90;;;;;;5017275;28;20084;-60
2020/12/12 00:04:46;;;;;;;14.95;10.20;;;4.50;99.90;;;;;;5016167;28;20056;-63
2020/12/12 00:07:11;;;;;;;14.05;10.65;;;4.50;99.90;;;;;;5014353;28;20464;-61
2020/12/12 00:09:38;;;;;;;14.77;10.30;;;4.60;99.90;;;;;;5020340;28;20022;-62
2020/12/12 00:12:05;;;;;;;14.73;9.70;;;4.60;99.90;;;;;;5016271;28;20444;-61
2020/12/12 00:14:31;;;;;;;14.65;10.38;;;4.60;99.90;;;;;;5014906;28;20408;-62
2020/12/12 00:16:57;;;;;;;15.27;10.38;;;4.60;99.90;;;;;;5016069;28;20037;-62
2020/12/12 00:19:23;;;;;;;15.23;10.00;;;4.60;99.90;;;;;;5018903;28;20038;-63
2020/12/12 00:21:53;;;;;;;13.75;9.68;;;4.50;99.90;;;;;;5013761;28;20017;-62
2020/12/12 00:24:19;;;;;;;14.52;9.98;;;4.60;99.90;;;;;;5016466;28;20034;-61
2020/12/12 00:26:45;;;;;;;14.23;9.32;;;4.60;99.90;;;;;;5011794;28;20488;-62
2020/12/12 00:29:12;;;;;;;16.77;10.15;;;4.60;99.90;;;;;;5016855;28;20022;-61
2020/12/12 00:31:39;;;;;;;13.95;9.68;;;4.60;99.90;;;;;;5016844;28;20025;-63
2020/12/12 00:34:05;;;;;;;15.10;10.05;;;4.60;99.90;;;;;;5001913;28;20112;-62
2020/12/12 00:36:31;;;;;;;15.93;11.05;;;4.60;99.90;;;;;;5016213;28;20033;-62
2020/12/12 00:38:57;;;;;;;16.25;10.13;;;4.60;99.90;;;;;;5014964;28;20840;-62
2020/12/12 00:41:22;;;;;;;15.45;10.82;;;4.50;99.90;;;;;;5016297;28;20168;-62
2020/12/12 00:43:48;;;;;;;14.32;9.98;;;4.60;99.90;;;;;;5013448;28;20100;-61
2020/12/12 00:46:14;;;;;;;18.27;10.25;;;4.60;99.90;;;;;;5011365;28;20080;-63
2020/12/12 00:48:39;;;;;;;16.50;10.57;;;4.70;99.90;;;;;;5012918;28;20025;-62
2020/12/12 00:51:05;;;;;;;15.50;10.68;;;4.60;99.90;;;;;;5017658;28;20021;-62
2020/12/12 00:53:30;;;;;;;16.35;10.48;;;4.60;99.90;;;;;;5015462;28;20101;-62
2020/12/12 00:55:56;;;;;;;15.05;10.23;;;4.60;99.90;;;;;;5016291;28;20170;-63
2020/12/12 00:58:22;;;;;;;14.50;10.05;;;4.60;99.90;;;;;;5011083;28;20029;-62
2020/12/12 01:00:48;;;;;;;15.02;10.00;;;4.70;99.90;;;;;;5030741;28;20022;-63
2020/12/12 01:03:14;;;;;;;16.70;11.02;;;4.60;99.90;;;;;;5015347;28;20030;-63
2020/12/12 01:05:39;;;;;;;13.85;9.63;;;4.70;99.90;;;;;;5013254;28;20140;-61
2020/12/12 01:08:05;;;;;;;18.40;10.27;;;4.70;99.90;;;;;;5017526;28;20069;-62
2020/12/12 01:10:31;;;;;;;12.35;9.35;;;4.80;99.90;;;;;;5020522;28;20148;-63
2020/12/12 01:12:56;;;;;;;15.35;10.07;;;4.80;99.90;;;;;;5013140;28;20026;-62
2020/12/12 01:15:22;;;;;;;14.82;10.75;;;4.80;99.90;;;;;;5030714;28;20033;-61
2020/12/12 01:17:48;;;;;;;13.10;9.73;;;4.80;99.90;;;;;;5017955;28;20022;-62
2020/12/12 01:20:14;;;;;;;13.65;9.95;;;4.80;99.90;;;;;;5013134;28;20049;-63
2020/12/12 01:22:40;;;;;;;15.90;10.02;;;4.80;99.90;;;;;;5017405;28;20033;-62
2020/12/12 01:25:05;;;;;;;13.57;9.38;;;4.90;99.90;;;;;;5018180;28;20036;-63
2020/12/12 01:27:31;;;;;;;16.38;11.10;;;4.90;99.90;;;;;;5033610;28;20391;-63
2020/12/12 01:29:56;;;;;;;14.82;9.93;;;4.90;99.90;;;;;;5033112;28;20038;-62
2020/12/12 01:32:22;;;;;;;15.43;10.27;;;4.90;99.90;;;;;;5017404;28;20021;-61
2020/12/12 01:34:48;;;;;;;14.40;10.15;;;4.90;99.90;;;;;;5018998;28;20064;-62
2020/12/12 01:37:14;;;;;;;14.45;10.02;;;4.90;99.90;;;;;;5039030;28;20787;-62
2020/12/12 01:39:39;;;;;;;15.30;9.73;;;4.90;99.90;;;;;;5030381;28;20060;-62
2020/12/12 01:42:05;;;;;;;16.38;10.25;;;4.90;99.90;;;;;;5012751;28;20030;-61
2020/12/12 01:44:31;;;;;;;14.75;10.05;;;4.90;99.90;;;;;;5032165;28;20025;-63
2020/12/12 01:46:59;;;;;;;14.13;9.07;;;5.00;99.90;;;;;;5020483;28;20038;-63
2020/12/12 01:49:25;;;;;;;16.40;10.40;;;5.00;99.90;;;;;;5015670;28;20034;-63
2020/12/12 01:51:52;;;;;;;14.23;9.98;;;5.00;99.90;;;;;;5019862;28;20044;-62
2020/12/12 01:54:18;;;;;;;13.80;9.88;;;5.00;99.90;;;;;;5015497;28;20041;-62
2020/12/12 01:56:46;;;;;;;14.70;8.75;;;5.00;99.90;;;;;;5014803;28;20026;-62
2020/12/12 01:59:12;;;;;;;14.30;9.70;;;4.90;99.90;;;;;;5015337;28;20014;-61
2020/12/12 02:01:45;;;;;;;14.15;10.55;;;5.00;99.90;;;;;;5009076;28;20442;-62
2020/12/12 02:04:16;;;;;;;14.85;9.57;;;5.00;99.90;;;;;;5008532;28;20029;-62
2020/12/12 02:06:42;;;;;;;15.57;10.38;;;5.00;99.90;;;;;;5010799;28;20021;-63
2020/12/12 02:09:08;;;;;;;14.70;10.05;;;5.00;99.90;;;;;;5014126;28;20025;-62
2020/12/12 02:11:36;;;;;;;15.23;10.45;;;5.00;99.90;;;;;;5032501;28;20608;-63
2020/12/12 02:14:01;;;;;;;18.20;11.32;;;5.00;99.90;;;;;;5035841;28;20063;-62
2020/12/12 02:16:27;;;;;;;16.80;11.77;;;5.00;99.90;;;;;;5029829;28;20060;-62
2020/12/12 02:18:52;;;;;;;19.55;12.27;;;5.00;99.90;;;;;;5034739;28;20020;-63
2020/12/12 02:21:18;;;;;;;19.35;12.10;;;5.00;99.90;;;;;;5029956;28;20112;-63
2020/12/12 02:23:43;;;;;;;17.65;11.70;;;5.00;99.90;;;;;;5029031;28;20486;-62
2020/12/12 02:26:09;;;;;;;21.33;12.98;;;5.00;99.90;;;;;;5036852;28;20020;-60
2020/12/12 02:28:48;;;;;;;20.65;13.20;;;5.00;99.90;;;;;;5041241;28;20029;-62
2020/12/12 02:31:14;;;;;;;22.50;12.95;;;5.00;99.90;;;;;;5029696;28;20078;-62
2020/12/12 02:33:40;;;;;;;20.25;12.43;;;4.90;99.90;;;;;;5004118;28;20460;-61
2020/12/12 02:36:06;;;;;;;21.20;13.93;;;4.90;99.90;;;;;;5038903;28;20041;-63
2020/12/12 02:38:32;;;;;;;20.77;13.43;;;4.90;99.90;;;;;;5029605;28;20044;-62
2020/12/12 02:40:57;;;;;;;20.70;13.35;;;4.90;99.90;;;;;;5039564;28;20033;-63
2020/12/12 02:43:24;;;;;;;23.27;14.13;;;4.90;99.90;;;;;;5036286;28;20099;-62
2020/12/12 02:45:50;;;;;;;20.80;13.82;;;4.90;99.90;;;;;;5040576;28;20017;-63
2020/12/12 02:48:15;;;;;;;21.42;13.63;;;4.90;99.90;;;;;;5038233;28;20056;-66
2020/12/12 02:50:42;;;;;;;18.75;12.93;;;4.90;99.90;;;;;;5025010;28;20040;-61
2020/12/12 02:53:07;;;;;;;20.50;14.05;;;4.90;99.90;;;;;;5039739;28;20116;-63
2020/12/12 02:55:33;;;;;;;21.83;13.48;;;4.90;99.90;;;;;;5022249;28;20157;-63
2020/12/12 02:57:59;;;;;;;20.83;13.57;;;4.90;99.90;;;;;;5027666;28;20510;-62
2020/12/12 03:00:25;;;;;;;21.77;13.70;;;4.90;99.90;;;;;;5034402;28;20025;-63
2020/12/12 03:02:51;;;;;;;20.92;13.57;;;4.90;99.90;;;;;;5039198;28;20029;-62
2020/12/12 03:05:18;;;;;;;23.92;16.00;;;4.90;99.90;;;;;;5041348;28;20530;-62
2020/12/12 03:07:44;;;;;;;28.10;15.25;;;4.80;99.90;;;;;;4969252;28;20036;-63
2020/12/12 03:10:09;;;;;;;21.55;15.02;;;4.90;99.90;;;;;;5034605;28;20025;-61
2020/12/12 03:12:36;;;;;;;22.92;15.57;;;4.90;99.90;;;;;;5031609;28;20018;-63
2020/12/12 03:15:07;;;;;;;25.98;15.32;;;4.80;99.90;;;;;;5039630;28;20483;-61
2020/12/12 03:17:33;;;;;;;25.88;16.85;;;4.80;99.90;;;;;;5028225;28;20025;-62
2020/12/12 03:19:59;;;;;;;24.20;16.33;;;4.80;99.90;;;;;;5036969;28;20032;-63
2020/12/12 03:22:24;;;;;;;22.88;15.60;;;4.80;99.90;;;;;;5032992;28;20024;-62
2020/12/12 03:24:50;;;;;;;24.27;15.27;;;4.80;99.90;;;;;;5025426;28;20022;-62
2020/12/12 03:27:15;;;;;;;24.45;16.52;;;4.80;99.90;;;;;;5036003;28;20021;-62
2020/12/12 03:29:41;;;;;;;25.70;16.40;;;4.80;99.90;;;;;;5024781;28;20014;-61
2020/12/12 03:32:08;;;;;;;22.92;15.45;;;4.80;99.90;;;;;;5038680;28;20060;-60
2020/12/12 03:34:35;;;;;;;28.05;17.27;;;4.80;99.90;;;;;;5015944;28;20133;-62
2020/12/12 03:37:01;;;;;;;26.15;16.75;;;4.90;99.90;;;;;;5029334;28;20597;-62
2020/12/12 03:39:27;;;;;;;25.55;16.42;;;4.80;99.90;;;;;;5038367;28;20025;-61
2020/12/12 03:41:53;;;;;;;24.98;16.02;;;4.90;99.90;;;;;;5025248;28;20088;-63
2020/12/12 03:44:18;;;;;;;26.42;16.75;;;4.90;99.90;;;;;;5033309;28;20082;-62
2020/12/12 03:46:44;;;;;;;23.92;15.90;;;4.90;99.90;;;;;;5027615;28;20017;-63
2020/12/12 03:49:09;;;;;;;25.92;16.38;;;4.90;99.90;;;;;;5041566;28;20025;-61
2020/12/12 03:51:35;;;;;;;25.45;15.90;;;4.90;99.90;;;;;;5031323;28;20022;-62
2020/12/12 03:54:00;;;;;;;26.70;15.35;;;4.90;99.90;;;;;;5036102;28;20037;-63
2020/12/12 03:56:26;;;;;;;26.95;15.40;;;5.00;99.90;;;;;;5035819;28;20032;-61
2020/12/12 03:58:51;;;;;;;25.02;15.80;;;5.00;99.90;;;;;;5024683;28;20018;-62
2020/12/12 04:01:17;;;;;;;26.13;16.48;;;5.00;99.90;;;;;;5042815;28;20517;-61
2020/12/12 04:03:42;;;;;;;24.27;15.70;;;5.00;99.90;;;;;;5035742;28;20053;-62
2020/12/12 04:06:08;;;;;;;26.35;17.17;;;5.00;99.90;;;;;;5040619;28;20386;-61
2020/12/12 04:08:34;;;;;;;25.17;15.48;;;5.00;99.90;;;;;;5030878;28;20643;-62
2020/12/12 04:11:02;;;;;;;25.88;15.73;;;5.00;99.90;;;;;;5042045;28;21373;-63
2020/12/12 04:13:28;;;;;;;22.52;15.25;;;5.00;99.90;;;;;;5039888;28;20135;-62
2020/12/12 04:15:54;;;;;;;26.08;15.95;;;5.10;99.90;;;;;;5039622;28;20131;-62
2020/12/12 04:18:19;;;;;;;20.08;14.60;;;5.00;99.90;;;;;;5039866;28;20167;-63
2020/12/12 04:20:45;;;;;;;21.42;15.23;;;5.10;99.90;;;;;;5036900;28;20481;-63
2020/12/12 04:23:10;;;;;;;22.80;15.35;;;5.10;99.90;;;;;;5041240;28;20029;-62
2020/12/12 04:25:36;;;;;;;25.90;15.40;;;5.00;99.90;;;;;;5032025;28;20029;-62
2020/12/12 04:28:02;;;;;;;24.02;14.45;;;5.00;99.90;;;;;;5039224;28;20104;-63
2020/12/12 04:30:27;;;;;;;25.52;14.85;;;5.00;99.90;;;;;;5038615;28;20482;-62
2020/12/12 04:32:53;;;;;;;24.40;15.85;;;5.10;99.90;;;;;;5028002;28;20617;-62
2020/12/12 04:35:18;;;;;;;24.83;15.90;;;5.10;99.90;;;;;;5031418;28;20116;-62
2020/12/12 04:37:44;;;;;;;24.30;15.65;;;5.10;99.90;;;;;;5035082;28;20025;-62
2020/12/12 04:40:10;;;;;;;23.63;14.68;;;5.10;99.90;;;;;;5035099;28;20028;-61
2020/12/12 04:42:37;;;;;;;22.08;14.40;;;5.10;99.90;;;;;;5037101;28;20036;-63
2020/12/12 04:45:04;;;;;;;25.10;15.15;;;5.10;99.90;;;;;;5039189;28;20548;-62
2020/12/12 04:47:31;;;;;;;23.70;14.48;;;5.10;99.90;;;;;;5032049;28;20458;-63
2020/12/12 04:49:58;;;;;;;27.67;16.00;;;5.10;99.90;;;;;;5038361;28;20034;-62
2020/12/12 04:52:24;;;;;;;23.20;14.82;;;5.10;99.90;;;;;;5039356;28;20483;-62
2020/12/12 04:54:51;;;;;;;22.38;13.40;;;5.10;99.90;;;;;;5036963;28;20094;-62
2020/12/12 04:57:17;;;;;;;21.58;14.02;;;5.10;99.90;;;;;;5042717;28;20066;-62
2020/12/12 04:59:44;;;;;;;21.98;14.48;;;5.20;99.90;;;;;;5030731;28;20041;-61
2020/12/12 05:02:13;;;;;;;21.70;14.00;;;5.20;99.90;;;;;;5037763;28;20055;-60
2020/12/12 05:04:40;;;;;;;21.90;14.52;;;5.20;99.90;;;;;;5041832;28;20098;-62
2020/12/12 05:07:07;;;;;;;24.35;15.57;;;5.20;99.90;;;;;;5031528;28;20631;-62
2020/12/12 05:09:33;;;;;;;21.92;14.38;;;5.20;99.90;;;;;;5037966;28;20029;-62
2020/12/12 05:11:59;;;;;;;18.92;13.15;;;5.20;99.90;;;;;;5035766;28;20124;-62
2020/12/12 05:14:24;;;;;;;21.25;14.70;;;5.20;99.90;;;;;;5041621;28;20013;-62
2020/12/12 05:16:54;;;;;;;19.90;13.50;;;5.20;99.90;;;;;;5030285;28;20037;-60
2020/12/12 05:19:20;;;;;;;20.80;13.85;;;5.20;99.90;;;;;;5032704;28;20044;-62
2020/12/12 05:21:50;;;;;;;20.40;13.38;;;5.20;99.90;;;;;;5040245;28;20028;-63
2020/12/12 05:24:16;;;;;;;23.00;14.50;;;5.20;99.90;;;;;;5028504;28;20112;-61
2020/12/12 05:26:43;;;;;;;22.48;14.45;;;5.20;99.90;;;;;;5040387;28;20520;-63
2020/12/12 05:29:11;;;;;;;20.42;13.70;;;5.20;99.90;;;;;;5035017;28;20021;-61
2020/12/12 05:31:37;;;;;;;19.40;12.98;;;5.20;99.90;;;;;;5039715;28;20536;-63
2020/12/12 05:34:14;;;;;;;20.50;13.38;;;5.20;99.90;;;;;;5021572;28;20069;-61
2020/12/12 05:36:41;;;;;;;19.35;13.70;;;5.20;99.90;;;;;;5030519;28;20030;-62
2020/12/12 05:39:12;;;;;;;20.48;12.65;;;5.30;99.90;;;;;;5030274;28;20505;-61
2020/12/12 05:41:38;;;;;;;18.35;12.57;;;5.30;99.90;;;;;;5030016;28;20407;-60
2020/12/12 05:44:04;;;;;;;18.75;13.35;;;5.30;99.90;;;;;;5035056;28;20564;-62
2020/12/12 05:46:31;;;;;;;21.83;12.90;;;5.30;99.90;;;;;;5031980;28;20116;-62
2020/12/12 05:48:58;;;;;;;21.35;13.27;;;5.20;99.90;;;;;;5042939;28;20060;-63
2020/12/12 05:51:27;;;;;;;18.77;13.00;;;5.30;99.90;;;;;;5019862;28;20052;-64
2020/12/12 05:53:54;;;;;;;19.50;13.15;;;5.30;99.90;;;;;;5025725;28;20053;-61
2020/12/12 05:56:22;;;;;;;21.55;12.48;;;5.30;99.90;;;;;;5032565;28;20017;-62
2020/12/12 05:58:48;;;;;;;20.40;12.65;;;5.30;99.90;;;;;;5026207;28;20099;-62
2020/12/12 06:01:26;;;;;;;17.20;11.65;;;5.30;99.90;;;;;;5031140;28;20158;-63
2020/12/12 06:04:08;;;;;;;18.48;12.23;;;5.30;99.90;;;;;;5032696;28;20106;-62
2020/12/12 06:06:41;;;;;;;17.33;11.88;;;5.30;99.90;;;;;;5021971;28;20021;-61
2020/12/12 06:09:08;;;;;;;17.50;11.73;;;5.30;99.90;;;;;;5033532;28;20025;-62
2020/12/12 06:11:39;;;;;;;22.67;11.95;;;5.30;99.90;;;;;;5037775;28;20174;-62
2020/12/12 06:14:05;;;;;;;17.65;11.45;;;5.30;99.90;;;;;;5038152;28;20488;-61
2020/12/12 06:16:32;;;;;;;16.13;11.90;;;5.40;99.90;;;;;;5034471;28;20068;-61
2020/12/12 06:19:17;;;;;;;16.85;10.63;;;5.40;99.90;;;;;;5035703;28;20017;-60
2020/12/12 06:21:44;;;;;;;;;;;5.40;99.90;;;;;;5040202;28;20586;-62
2020/12/12 06:24:12;;;;;;;16.88;11.02;;;5.40;99.90;;;;;;5029828;28;19909;-60
2020/12/12 06:26:38;;;;;;;16.10;11.48;;;5.40;99.90;;;;;;5039614;28;20095;-62
2020/12/12 06:29:03;;;;;;;16.95;11.23;;;5.40;99.90;;;;;;5034191;28;20880;-61
2020/12/12 06:31:35;;;;;;;16.15;11.27;;;5.40;99.90;;;;;;5038365;28;20021;-62
2020/12/12 06:34:00;;;;;;;16.48;10.98;;;5.50;99.90;;;;;;5021160;28;20536;-62
2020/12/12 06:36:31;;;;;;;16.38;11.55;;;5.40;99.90;;;;;;5034419;28;20025;-63
2020/12/12 06:39:20;;;;;;;18.23;11.90;;;5.40;99.90;;;;;;5038563;28;20503;-61
2020/12/12 06:41:54;;;;;;;14.40;10.57;;;5.40;99.90;;;;;;5035309;28;20026;-62
2020/12/12 06:44:33;;;;;;;15.43;10.65;;;5.40;99.90;;;;;;5043680;28;20394;-62
2020/12/12 06:46:59;;;;;;;15.13;10.75;;;5.40;99.90;;;;;;5037769;28;20160;-63
2020/12/12 06:49:25;;;;;;;15.27;10.45;;;5.40;99.90;;;;;;5043345;28;20021;-63
2020/12/12 06:51:51;;;;;;;14.50;10.63;;;5.40;99.90;;;;;;5039608;28;20104;-62
2020/12/12 06:54:18;;;;;;;16.17;10.40;;;5.40;99.90;;;;;;5037510;28;20536;-62
2020/12/12 06:56:44;;;;;;;14.75;10.88;;;5.40;99.90;;;;;;5040826;28;20017;-63
2020/12/12 06:59:30;;;;;;;16.27;10.30;;;5.50;99.90;;;;;;5041145;28;20386;-63
2020/12/12 07:01:58;;;;;;;13.65;10.18;;;5.50;99.90;;;;;;5033047;28;20071;-63
2020/12/12 07:04:31;;;;;;;14.98;10.65;;;5.40;99.90;;;;;;5041917;28;20025;-63
2020/12/12 07:06:59;;;;;;;15.82;10.68;;;5.50;99.90;;;;;;5038468;28;20025;-63
2020/12/12 07:09:26;;;;;;;16.98;11.18;;;5.50;99.90;;;;;;5035566;28;20108;-63
2020/12/12 07:11:53;;;;;;;16.42;10.68;;;5.50;99.90;;;;;;5039275;28;20120;-62
2020/12/12 07:14:18;;;;;;;14.80;10.20;;;5.50;99.90;;;;;;5041070;28;20040;-63
2020/12/12 07:16:44;;;;;;;17.95;11.75;;;5.50;99.90;;;;;;5039687;28;20391;-63
2020/12/12 07:19:10;;;;;;;18.95;11.30;;;5.50;99.90;;;;;;5037025;28;20188;-63
2020/12/12 07:21:43;;;;;;;14.98;10.93;;;5.50;99.90;;;;;;5036308;28;20029;-62
2020/12/12 07:24:09;;;;;;;16.15;11.27;;;5.50;99.90;;;;;;5027730;28;20039;-62
2020/12/12 07:26:34;;;;;;;18.75;11.95;;;5.50;99.90;;;;;;5041523;28;20536;-63
2020/12/12 07:29:00;;;;;;;13.95;10.25;;;5.50;99.90;;;;;;5037468;28;20056;-63
2020/12/12 07:31:26;;;;;;;15.68;10.60;;;5.50;99.90;;;;;;5039866;28;20025;-63
2020/12/12 07:33:52;;;;;;;17.05;10.18;;;5.60;99.90;;;;;;5019928;28;20068;-63
2020/12/12 07:36:17;;;;;;;18.15;10.88;;;5.60;99.90;;;;;;5031498;28;20052;-63
2020/12/12 07:38:43;;;;;;;17.15;11.35;;;5.60;99.90;;;;;;5036134;28;20033;-64
2020/12/12 07:41:11;;;;;;;19.02;12.90;;;5.50;99.90;;;;;;5036169;28;20032;-63
2020/12/12 07:43:55;;;;;;;19.17;12.15;;;5.50;99.90;;;;;;5039163;28;20036;-64
2020/12/12 07:46:38;;;;;;;17.42;12.38;;;5.50;99.90;;;;;;5035312;28;20025;-63
2020/12/12 07:49:04;;;;;;;18.45;12.23;;;5.40;99.90;;;;;;5045161;28;20025;-62
2020/12/12 07:51:30;;;;;;;18.95;12.80;;;5.40;99.90;;;;;;5036024;28;20021;-64
2020/12/12 07:53:55;;;;;;;17.98;12.13;;;5.40;99.90;;;;;;5038209;28;20042;-63
2020/12/12 07:56:22;;;;;;;18.83;12.90;;;5.40;99.90;;;;;;5042234;28;20041;-63
2020/12/12 07:58:57;;;;;;;19.25;12.98;;;5.40;99.90;;;;;;5035759;28;20040;-64
2020/12/12 08:01:24;;;;;;;22.63;13.38;;;5.40;99.90;;;;;;5035895;28;20025;-64
2020/12/12 08:03:50;;;;;;;17.60;12.00;;;5.40;99.90;;;;;;5037998;28;20017;-64
2020/12/12 08:06:16;;;;;;;20.40;13.10;;;5.40;99.90;;;;;;5037771;28;20028;-64
2020/12/12 08:08:41;;;;;;;18.70;12.07;;;5.40;99.90;;;;;;5030389;28;20030;-64
2020/12/12 08:11:08;;;;;;;19.10;11.77;;;5.40;99.90;;;;;;5039478;28;20482;-63
2020/12/12 08:13:34;;;;;;;18.77;13.77;;;5.40;99.90;;;;;;5040144;28;20090;-63
2020/12/12 08:16:10;;;;;;;19.52;12.88;;;5.40;99.90;;;;;;5039333;28;20092;-62
2020/12/12 08:18:36;;;;;;;18.33;11.90;;;5.40;99.90;;;;;;5040021;28;20099;-63
2020/12/12 08:21:15;;;;;;;24.83;13.18;;;5.50;99.90;;;;;;5032677;28;20060;-64
2020/12/12 08:23:42;;;;;;;23.00;12.93;;;5.40;99.90;;;;;;5030664;28;20084;-62
2020/12/12 08:26:11;;;;;;;18.02;12.45;;;5.50;99.90;;;;;;5037906;28;20692;-63
2020/12/12 08:28:38;;;;;;;19.45;12.85;;;5.50;99.90;;;;;;5039962;28;20021;-62
2020/12/12 08:31:14;;;;;;;18.88;12.27;;;5.50;99.90;;;;;;5036569;28;20079;-64
2020/12/12 08:33:42;;;;;;;18.98;12.20;;;5.50;99.90;;;;;;5027529;28;20037;-62
2020/12/12 08:36:23;;;;;;;18.00;12.07;;;5.60;99.90;;;;;;5027687;28;20521;-64
2020/12/12 08:39:00;;;;;;;17.67;11.88;;;5.60;99.90;;;;;;5035500;28;20034;-62
2020/12/12 08:41:29;;;;;;;16.23;11.65;;;5.60;99.90;;;;;;5034996;28;20448;-64
2020/12/12 08:43:55;;;;;;;17.45;10.93;;;5.60;99.90;;;;;;5043040;28;20115;-64
2020/12/12 08:46:21;;;;;;;16.58;10.75;;;5.60;99.90;;;;;;5033099;28;20100;-64
2020/12/12 08:48:47;;;;;;;16.80;11.02;;;5.70;99.90;;;;;;5038117;28;20025;-64
2020/12/12 08:51:12;;;;;;;15.32;10.98;;;5.60;99.90;;;;;;5040916;28;20049;-64
2020/12/12 08:53:43;;;;;;;15.98;11.30;;;5.70;99.90;;;;;;5031643;28;20479;-64
2020/12/12 08:56:21;;;;;;;15.52;10.93;;;5.70;99.90;;;;;;5031083;28;20067;-63
2020/12/12 08:59:01;;;;;;;17.88;11.38;;;5.80;99.90;;;;;;5034462;28;20021;-62
2020/12/12 09:01:38;;;;;;;16.60;11.00;;;5.80;99.90;;;;;;5032236;28;20029;-64
2020/12/12 09:04:10;;;;;;;16.15;10.38;;;5.80;99.90;;;;;;5039900;28;20223;-64
2020/12/12 09:06:44;;;;;;;15.13;9.93;;;5.90;99.90;;;;;;5041451;28;20024;-62
2020/12/12 09:09:33;;;;;;;16.85;10.38;;;5.90;99.90;;;;;;5038440;28;20036;-63
2020/12/12 09:12:02;;;;;;;17.95;10.13;;;5.90;99.90;;;;;;5032166;28;20041;-63
2020/12/12 09:14:33;;;;;;;15.27;10.77;;;5.90;99.90;;;;;;5041736;28;20032;-64
2020/12/12 09:17:01;;;;;;;14.75;10.63;;;5.90;99.90;;;;;;5038662;28;20486;-62
2020/12/12 09:19:27;;;;;;;17.33;11.70;;;5.90;99.90;;;;;;5034738;28;20033;-63
2020/12/12 09:21:53;;;;;;;16.38;10.13;;;6.00;99.90;;;;;;5040315;28;20120;-63
2020/12/12 09:24:22;;;;;;;15.23;10.63;;;6.00;99.90;;;;;;5029735;28;20112;-63
2020/12/12 09:26:49;;;;;;;13.95;10.60;;;6.10;99.90;;;;;;5040434;28;20025;-63
2020/12/12 09:29:15;;;;;;;15.10;11.30;;;6.20;99.90;;;;;;5035070;28;20048;-63
2020/12/12 09:31:41;;;;;;;15.93;10.38;;;6.20;99.90;;;;;;5038142;28;20086;-64
2020/12/12 09:34:07;;;;;;;13.32;9.65;;;6.20;99.90;;;;;;5015320;28;20049;-64
2020/12/12 09:36:32;;;;;;;16.20;10.30;;;6.20;99.90;;;;;;5028068;28;20037;-64
2020/12/12 09:38:58;;;;;;;15.45;9.98;;;6.20;99.90;;;;;;5021374;28;20030;-63
2020/12/12 09:41:23;;;;;;;13.95;10.35;;;6.20;99.90;;;;;;5030403;28;20483;-62
2020/12/12 09:43:49;;;;;;;13.30;10.27;;;6.20;99.90;;;;;;5042205;28;20025;-64
2020/12/12 09:46:18;;;;;;;13.80;9.73;;;6.20;99.90;;;;;;5032886;28;20033;-63
2020/12/12 09:48:44;;;;;;;15.57;10.82;;;6.20;99.90;;;;;;5025237;28;20509;-64
2020/12/12 09:51:10;;;;;;;13.82;9.60;;;6.20;99.90;;;;;;5035047;28;20070;-62
2020/12/12 09:53:37;;;;;;;14.85;9.30;;;6.20;99.90;;;;;;5027755;28;20053;-63
2020/12/12 09:56:03;;;;;;;15.15;10.73;;;6.20;99.90;;;;;;5032511;28;20024;-63
2020/12/12 09:58:29;;;;;;;15.38;9.95;;;6.20;99.90;;;;;;5035259;28;20025;-64
2020/12/12 10:00:54;;;;;;;12.75;9.25;;;6.30;99.90;;;;;;5030224;28;20017;-65
2020/12/12 10:03:20;;;;;;;13.48;9.05;;;6.30;99.90;;;;;;5024645;28;20025;-64
2020/12/12 10:05:46;;;;;;;11.52;8.80;;;6.40;99.90;;;;;;5035234;28;20617;-64
2020/12/12 10:08:11;;;;;;;14.52;9.48;;;6.40;99.90;;;;;;5018906;28;20022;-63
2020/12/12 10:10:37;;;;;;;15.00;9.93;;;6.40;99.90;;;;;;5034865;28;20434;-64
2020/12/12 10:13:02;;;;;;;13.43;8.77;;;6.40;99.90;;;;;;5025665;28;20017;-64
2020/12/12 10:15:28;;;;;;;16.33;10.55;;;6.40;99.90;;;;;;5034438;28;20053;-63
2020/12/12 10:17:55;;;;;;;13.65;9.85;;;6.40;99.90;;;;;;5023538;28;20410;-64
2020/12/12 10:20:21;;;;;;;14.45;10.55;;;6.40;99.90;;;;;;5025617;28;20554;-64
2020/12/12 10:22:47;;;;;;;13.20;8.65;;;6.40;99.90;;;;;;5029813;28;20022;-64
2020/12/12 10:25:13;;;;;;;14.73;10.35;;;6.40;99.90;;;;;;5025035;28;20082;-64
2020/12/12 10:27:39;;;;;;;14.05;9.20;;;6.40;99.90;;;;;;5026609;28;20032;-64
2020/12/12 10:30:06;;;;;;;16.13;10.23;;;6.40;99.90;;;;;;5020600;28;20033;-63
2020/12/12 10:32:32;;;;;;;16.50;9.95;;;6.40;99.90;;;;;;5028310;28;20033;-63
2020/12/12 10:34:58;;;;;;;15.05;10.07;;;6.40;99.90;;;;;;5013529;28;20160;-63
2020/12/12 10:37:23;;;;;;;13.30;8.80;;;6.50;99.90;;;;;;5032179;28;20037;-62
2020/12/12 10:39:55;;;;;;;15.38;10.35;;;6.50;99.90;;;;;;5032444;28;20120;-64
2020/12/12 10:42:20;;;;;;;14.43;9.60;;;6.50;99.90;;;;;;5034563;28;20433;-64
2020/12/12 10:44:46;;;;;;;14.57;10.18;;;6.60;99.90;;;;;;5036080;28;20032;-63
2020/12/12 10:47:11;;;;;;;17.35;10.63;;;6.60;99.90;;;;;;5018787;28;20029;-63
2020/12/12 10:49:37;;;;;;;14.35;10.13;;;6.50;99.90;;;;;;5023950;28;20056;-63
2020/12/12 10:52:03;;;;;;;17.42;10.40;;;6.50;99.90;;;;;;5033325;28;20099;-64
2020/12/12 10:54:29;;;;;;;16.55;10.48;;;6.60;99.90;;;;;;5030652;28;20124;-64
2020/12/12 10:56:55;;;;;;;17.08;10.95;;;6.60;99.90;;;;;;5026529;28;20115;-63
2020/12/12 10:59:20;;;;;;;14.57;10.07;;;6.60;99.90;;;;;;5019113;28;20030;-64
2020/12/12 11:01:50;;;;;;;16.08;11.45;;;6.60;99.90;;;;;;5018637;28;20026;-63
2020/12/12 11:04:16;;;;;;;20.83;11.50;;;6.70;99.90;;;;;;5025393;28;20719;-63
2020/12/12 11:06:41;;;;;;;16.05;11.23;;;6.60;99.90;;;;;;5017096;28;20049;-63
2020/12/12 11:09:07;;;;;;;15.05;10.80;;;6.70;99.90;;;;;;5028174;28;20026;-63
2020/12/12 11:11:36;;;;;;;17.45;11.30;;;6.60;99.90;;;;;;5024453;28;20022;-63
2020/12/12 11:14:02;;;;;;;15.60;10.73;;;6.70;99.90;;;;;;5034591;28;20712;-64
2020/12/12 11:16:27;;;;;;;17.60;11.90;;;6.80;99.90;;;;;;5031263;28;20030;-63
2020/12/12 11:18:53;;;;;;;17.10;11.65;;;6.80;99.90;;;;;;5016753;28;20018;-62
2020/12/12 11:21:23;;;;;;;23.83;12.40;;;6.80;99.90;;;;;;5029404;28;20034;-64
2020/12/12 11:23:49;;;;;;;19.10;12.75;;;6.80;99.90;;;;;;5025701;28;20045;-65
2020/12/12 11:26:16;;;;;;;16.60;11.80;;;6.70;99.90;;;;;;5028175;28;20108;-63
2020/12/12 11:28:43;;;;;;;19.65;12.75;;;6.70;99.90;;;;;;5019316;28;20033;-62
2020/12/12 11:31:09;;;;;;;21.23;13.52;;;6.70;99.90;;;;;;5031244;28;20079;-64
2020/12/12 11:33:37;;;;;;;23.00;13.82;;;6.70;99.90;;;;;;5029745;28;20025;-64
2020/12/12 11:36:15;;;;;;;24.10;13.60;;;6.70;99.90;;;;;;5023206;28;20026;-63
2020/12/12 11:38:51;;;;;;;23.48;13.05;;;6.80;99.90;;;;;;5023370;28;20089;-63
2020/12/12 11:46:31;;;;;;;19.77;13.63;;;6.90;99.90;;;;;;5033470;28;20471;-64
2020/12/12 11:48:58;;;;;;;20.45;12.52;;;7.00;99.90;;;;;;5043598;28;20033;-64
2020/12/12 11:51:24;;;;;;;18.60;12.65;;;7.10;99.90;;;;;;5037339;28;20038;-64
2020/12/12 11:53:49;;;;;;;19.90;13.85;;;7.10;99.90;;;;;;5020796;28;20075;-64
2020/12/12 11:56:23;;;;;;;21.17;14.13;;;7.10;99.90;;;;;;5039359;28;20136;-63
2020/12/12 11:58:49;;;;;;;20.77;13.25;;;7.10;99.90;;;;;;5027517;28;20445;-63
2020/12/12 12:01:23;;;;;;;22.20;13.60;;;7.00;99.90;;;;;;5046494;28;20100;-63
2020/12/12 12:03:53;;;;;;;21.42;14.27;;;7.10;99.90;;;;;;5040839;28;20068;-64
2020/12/12 12:06:20;;;;;;;21.92;13.07;;;7.10;99.90;;;;;;5037835;28;20035;-64
2020/12/12 12:11:31;;;;;;;22.23;14.60;;;7.20;99.90;;;;;;5043143;28;20043;-64
2020/12/12 12:14:01;;;;;;;27.88;17.10;;;7.30;99.90;;;;;;5048951;28;20037;-64
2020/12/12 12:16:28;;;;;;;19.98;13.65;;;7.30;99.90;;;;;;5044755;28;20036;-64
2020/12/12 12:18:54;;;;;;;22.20;13.82;;;7.30;99.90;;;;;;5042567;28;20021;-64
2020/12/12 12:21:21;;;;;;;24.70;15.13;;;7.30;99.90;;;;;;5044670;28;20087;-64
2020/12/12 12:23:46;;;;;;;26.10;14.55;;;7.30;99.90;;;;;;5041014;28;20029;-63
2020/12/12 12:26:15;;;;;;;41.58;21.50;;;7.20;99.90;;;;;;5044957;28;20041;-64
2020/12/12 12:28:42;;;;;;;37.80;21.67;;;7.20;99.90;;;;;;5040541;28;20095;-64
2020/12/12 12:31:07;;;;;;;29.08;16.92;;;7.20;99.90;;;;;;5049071;28;20032;-64
2020/12/12 12:33:33;;;;;;;28.00;16.50;;;7.20;99.90;;;;;;5045047;28;20029;-64
2020/12/12 12:35:59;;;;;;;28.30;15.55;;;7.30;99.90;;;;;;5041094;28;20043;-64
2020/12/12 12:38:24;;;;;;;26.52;15.10;;;7.30;99.90;;;;;;5045096;28;20025;-65
2020/12/12 12:40:50;;;;;;;23.92;14.73;;;7.30;99.90;;;;;;5042747;28;20437;-64
2020/12/12 12:43:16;;;;;;;26.30;16.17;;;7.30;99.90;;;;;;5044473;28;20028;-64
2020/12/12 12:45:42;;;;;;;24.77;14.23;;;7.40;99.90;;;;;;5039012;28;20025;-64
2020/12/12 12:48:07;;;;;;;32.10;15.75;;;7.50;99.90;;;;;;5044051;28;20040;-64